Time;durP1;ratioP1;P1;durP2;ratioP2;P2;SDS_P1;SDS_P2;PMS_P1;PMS_P2;Temp;Humidity;BMP_temperature;BMP_pressure;BME280_temperature;BME280_humidity;BME280_pressure;Samples;Min_cycle;Max_cycle;Signal;HPM_P1;HPM_P2
2022/12/02 00:02:31;;;;;;;0.10;0.10;;;5.60;99.90;;;;;;5028821;28;20029;-83
2022/12/02 00:05:04;;;;;;;1.05;1.05;;;5.50;99.90;;;;;;5056985;28;20032;-83
2022/12/02 00:07:32;;;;;;;0.40;0.40;;;5.60;99.90;;;;;;5028255;28;20564;-84
2022/12/02 00:09:58;;;;;;;1.55;0.65;;;5.60;99.90;;;;;;5046829;28;20559;-85
2022/12/02 00:12:26;;;;;;;0.43;0.43;;;5.50;99.90;;;;;;5028442;28;20110;-83
2022/12/02 00:14:56;;;;;;;0.32;0.32;;;5.50;99.90;;;;;;5042774;28;20043;-82
2022/12/02 00:17:22;;;;;;;0.17;0.17;;;5.60;99.90;;;;;;5047213;28;20082;-81
2022/12/02 00:19:48;;;;;;;0.30;0.30;;;5.60;99.90;;;;;;5046446;28;20516;-81
2022/12/02 00:22:14;;;;;;;0.40;0.40;;;5.50;99.90;;;;;;5046518;28;20134;-81
2022/12/02 00:24:39;;;;;;;0.20;0.20;;;5.60;99.90;;;;;;5056438;28;20029;-82
2022/12/02 00:27:05;;;;;;;0.47;0.47;;;5.60;99.90;;;;;;5052714;28;20105;-82
2022/12/02 00:29:30;;;;;;;1.42;1.00;;;5.60;99.90;;;;;;5030868;28;20060;-82
2022/12/02 00:31:56;;;;;;;0.20;0.20;;;5.50;99.90;;;;;;5028304;28;20064;-81
2022/12/02 00:34:22;;;;;;;0.75;0.50;;;5.50;99.90;;;;;;5046534;28;20789;-82
2022/12/02 00:36:47;;;;;;;0.40;0.40;;;5.50;99.90;;;;;;5028874;28;20050;-82
2022/12/02 00:39:13;;;;;;;0.40;0.40;;;5.40;99.90;;;;;;5061757;28;20482;-83
2022/12/02 00:41:39;;;;;;;0.75;0.73;;;5.50;99.90;;;;;;5029280;28;20029;-83
2022/12/02 00:46:49;;;;;;;0.20;0.20;;;5.50;99.90;;;;;;5047134;28;20236;-83
2022/12/02 00:49:16;;;;;;;0.60;0.60;;;5.40;99.90;;;;;;5050262;28;20128;-83
2022/12/02 00:51:43;;;;;;;0.10;0.10;;;5.50;99.90;;;;;;5053509;28;20040;-83
2022/12/02 00:54:09;;;;;;;;;;;5.50;99.90;;;;;;5050985;28;20033;-84
2022/12/02 00:56:35;;;;;;;0.10;0.10;;;5.50;99.90;;;;;;5049394;28;19967;-83
2022/12/02 00:59:01;;;;;;;0.10;0.10;;;5.40;99.90;;;;;;5046137;28;20028;-82
2022/12/02 01:01:27;;;;;;;0.22;0.22;;;5.40;99.90;;;;;;5032757;28;20029;-82
2022/12/02 01:03:53;;;;;;;0.10;0.10;;;5.40;99.90;;;;;;5050133;28;20090;-82
2022/12/02 01:06:19;;;;;;;0.68;0.68;;;5.40;99.90;;;;;;5049678;28;20611;-82
2022/12/02 01:08:45;;;;;;;0.10;0.10;;;5.40;99.90;;;;;;5042247;28;20037;-81
2022/12/02 01:11:11;;;;;;;0.40;0.40;;;5.40;99.90;;;;;;5029903;28;20048;-81
2022/12/02 01:13:37;;;;;;;0.43;0.40;;;5.30;99.90;;;;;;5031623;28;20032;-81
2022/12/02 01:16:03;;;;;;;0.50;0.50;;;5.30;99.90;;;;;;5050254;28;20037;-83
2022/12/02 01:18:29;;;;;;;0.50;0.50;;;5.40;99.90;;;;;;5050219;28;20017;-83
2022/12/02 01:20:55;;;;;;;1.50;0.38;;;5.40;99.90;;;;;;5032169;28;20268;-84
2022/12/02 01:23:20;;;;;;;0.20;0.20;;;5.30;99.90;;;;;;5050335;28;20036;-82
2022/12/02 01:25:47;;;;;;;0.40;0.40;;;5.30;99.90;;;;;;5064131;28;20033;-83
2022/12/02 01:28:14;;;;;;;0.50;0.50;;;5.30;99.90;;;;;;5046718;28;20032;-83
2022/12/02 01:30:39;;;;;;;0.30;0.20;;;5.20;99.90;;;;;;5055988;28;20029;-83
2022/12/02 01:33:05;;;;;;;0.10;0.10;;;5.20;99.90;;;;;;5049327;28;20091;-82
2022/12/02 01:35:30;;;;;;;0.20;0.20;;;5.10;99.90;;;;;;5031990;28;20093;-81
2022/12/02 01:37:56;;;;;;;0.30;0.30;;;5.00;99.90;;;;;;5049928;28;20692;-81
2022/12/02 01:40:22;;;;;;;1.75;0.70;;;5.10;99.90;;;;;;5049766;28;20456;-87
2022/12/02 01:42:48;;;;;;;2.53;1.08;;;5.10;99.90;;;;;;5050528;28;20037;-85
2022/12/02 01:45:14;;;;;;;0.20;0.20;;;5.10;99.90;;;;;;5048269;28;20835;-90
2022/12/02 01:47:41;;;;;;;1.02;0.75;;;5.10;99.90;;;;;;5038257;28;20036;-89
2022/12/02 01:50:09;;;;;;;0.30;0.30;;;4.90;99.90;;;;;;5054075;28;20040;-84
2022/12/02 01:52:35;;;;;;;0.20;0.20;;;4.90;99.90;;;;;;5051182;28;20836;-85
2022/12/02 01:55:01;;;;;;;0.10;0.10;;;4.90;99.90;;;;;;5049655;28;20116;-82
2022/12/02 01:57:29;;;;;;;0.38;0.20;;;4.80;99.90;;;;;;5030563;28;20035;-85
2022/12/02 01:59:56;;;;;;;0.57;0.57;;;4.60;99.90;;;;;;5049835;28;20056;-83
2022/12/02 02:02:30;;;;;;;0.20;0.20;;;4.50;99.90;;;;;;5049323;28;20055;-84
2022/12/02 02:05:06;;;;;;;1.25;0.63;;;4.40;99.90;;;;;;5049245;28;20028;-83
2022/12/02 02:07:34;;;;;;;0.52;0.52;;;4.40;99.90;;;;;;5048443;28;20036;-84
2022/12/02 02:10:00;;;;;;;1.10;0.70;;;4.30;99.90;;;;;;5030634;28;20044;-84
2022/12/02 02:12:26;;;;;;;0.20;0.20;;;4.40;99.90;;;;;;5049725;28;20059;-85
2022/12/02 02:14:52;;;;;;;1.23;1.15;;;4.50;99.90;;;;;;5048528;28;20036;-83
2022/12/02 02:17:18;;;;;;;0.60;0.50;;;4.60;99.90;;;;;;5049405;28;20139;-83
2022/12/02 02:19:44;;;;;;;0.17;0.17;;;4.40;99.90;;;;;;5029546;28;20029;-84
2022/12/02 02:22:18;;;;;;;0.65;0.65;;;4.40;99.90;;;;;;5048114;28;20441;-81
2022/12/02 02:24:44;;;;;;;0.20;0.20;;;4.30;99.90;;;;;;5048436;28;20763;-81
2022/12/02 02:27:10;;;;;;;0.38;0.38;;;4.30;99.90;;;;;;5048503;28;20079;-80
2022/12/02 02:29:35;;;;;;;0.20;0.20;;;4.30;99.90;;;;;;5048574;28;20040;-82
2022/12/02 02:32:02;;;;;;;0.30;0.30;;;4.10;99.90;;;;;;5048527;28;20234;-80
2022/12/02 02:34:28;;;;;;;0.52;0.52;;;3.90;99.90;;;;;;5048361;28;20071;-81
2022/12/02 02:36:54;;;;;;;0.17;0.17;;;4.00;99.90;;;;;;5048174;28;20128;-81
2022/12/02 02:39:21;;;;;;;0.10;0.10;;;4.00;99.90;;;;;;5048266;28;20033;-81
2022/12/02 02:41:47;;;;;;;0.73;0.43;;;4.00;99.90;;;;;;5040336;28;20024;-83
2022/12/02 02:44:13;;;;;;;0.30;0.30;;;4.00;99.90;;;;;;5055346;28;20599;-82
2022/12/02 02:46:39;;;;;;;0.20;0.20;;;4.10;99.90;;;;;;5035019;28;20029;-82
2022/12/02 02:49:05;;;;;;;0.68;0.68;;;4.00;99.90;;;;;;5048250;28;20283;-81
2022/12/02 02:51:31;;;;;;;0.28;0.28;;;3.70;99.90;;;;;;5049101;28;20610;-81
2022/12/02 02:53:57;;;;;;;0.10;0.10;;;3.70;99.90;;;;;;5048160;28;20051;-81
2022/12/02 02:56:23;;;;;;;0.60;0.60;;;3.50;99.90;;;;;;5056707;28;20049;-83
2022/12/02 02:58:48;;;;;;;0.22;0.22;;;3.50;99.90;;;;;;5047196;28;20037;-82
2022/12/02 03:01:19;;;;;;;0.10;0.10;;;3.50;99.90;;;;;;5047217;28;20074;-82
2022/12/02 03:03:50;;;;;;;0.70;0.40;;;3.50;99.90;;;;;;5047483;28;20033;-82
2022/12/02 03:06:16;;;;;;;0.20;0.20;;;3.30;99.90;;;;;;5047429;28;20116;-82
2022/12/02 03:08:46;;;;;;;0.30;0.30;;;3.40;99.90;;;;;;5046249;28;20029;-81
2022/12/02 03:11:12;;;;;;;0.47;0.47;;;3.50;99.90;;;;;;5046472;28;20366;-81
2022/12/02 03:13:40;;;;;;;0.30;0.30;;;3.50;99.90;;;;;;5044667;28;20116;-79
2022/12/02 03:16:10;;;;;;;0.10;0.10;;;3.50;99.90;;;;;;5046080;28;20108;-80
2022/12/02 03:18:37;;;;;;;0.15;0.15;;;3.60;99.90;;;;;;5037155;28;20117;-80
2022/12/02 03:21:03;;;;;;;0.10;0.10;;;3.60;99.90;;;;;;5032527;28;20036;-80
2022/12/02 03:23:31;;;;;;;0.08;0.08;;;3.80;99.90;;;;;;5057281;28;20083;-80
2022/12/02 03:25:57;;;;;;;0.10;0.10;;;3.80;99.90;;;;;;5046859;28;20115;-80
2022/12/02 03:28:23;;;;;;;0.27;0.27;;;3.70;99.90;;;;;;5046943;28;20118;-80
2022/12/02 03:30:50;;;;;;;0.10;0.10;;;3.80;99.90;;;;;;5028384;28;20504;-81
2022/12/02 03:33:15;;;;;;;0.35;0.35;;;4.00;99.90;;;;;;5047554;28;20044;-80
2022/12/02 03:35:41;;;;;;;0.20;0.20;;;4.00;99.90;;;;;;5047368;28;20028;-80
2022/12/02 03:38:07;;;;;;;0.20;0.20;;;4.10;99.90;;;;;;5047741;28;20071;-81
2022/12/02 03:40:32;;;;;;;1.85;0.50;;;4.20;99.90;;;;;;5047297;28;20033;-81
2022/12/02 03:42:58;;;;;;;0.10;0.10;;;4.10;99.90;;;;;;5061845;28;20110;-80
2022/12/02 03:45:25;;;;;;;0.43;0.43;;;4.10;99.90;;;;;;5047349;28;20683;-81
2022/12/02 03:47:51;;;;;;;0.30;0.30;;;4.10;99.90;;;;;;5046660;28;20029;-79
2022/12/02 03:50:17;;;;;;;0.30;0.30;;;4.10;99.90;;;;;;5047479;28;20044;-79
2022/12/02 03:52:43;;;;;;;0.10;0.10;;;4.20;99.90;;;;;;5049437;28;20062;-79
2022/12/02 03:55:10;;;;;;;0.10;0.10;;;4.20;99.90;;;;;;5047177;28;20041;-80
2022/12/02 03:57:35;;;;;;;0.30;0.30;;;4.20;99.90;;;;;;5047165;28;20060;-80
2022/12/02 04:00:04;;;;;;;0.10;0.10;;;4.30;99.90;;;;;;5047311;28;20040;-80
2022/12/02 04:02:30;;;;;;;0.22;0.22;;;4.30;99.90;;;;;;5047186;28;20029;-81
2022/12/02 04:04:55;;;;;;;0.20;0.20;;;4.30;99.90;;;;;;5046867;28;20044;-80
2022/12/02 04:07:21;;;;;;;0.60;0.60;;;4.30;99.90;;;;;;5047369;28;20083;-80
2022/12/02 04:09:46;;;;;;;0.17;0.17;;;4.30;99.90;;;;;;5045937;28;20409;-81
2022/12/02 04:12:12;;;;;;;0.20;0.20;;;4.30;99.90;;;;;;5046905;28;20071;-82
2022/12/02 04:14:38;;;;;;;0.22;0.22;;;4.30;99.90;;;;;;5045167;28;20124;-81
2022/12/02 04:17:03;;;;;;;6.18;1.00;;;4.40;99.90;;;;;;5045492;28;20119;-79
2022/12/02 04:19:29;;;;;;;0.40;0.40;;;4.30;99.90;;;;;;5045861;28;20044;-80
2022/12/02 04:21:55;;;;;;;0.10;0.10;;;4.30;99.90;;;;;;5030083;28;20040;-81
2022/12/02 04:24:20;;;;;;;0.38;0.38;;;4.30;99.90;;;;;;5051280;28;20104;-80
2022/12/02 04:26:46;;;;;;;0.22;0.22;;;4.40;99.90;;;;;;5050642;28;20048;-82
2022/12/02 04:29:11;;;;;;;0.10;0.10;;;4.40;99.90;;;;;;5032862;28;20568;-82
2022/12/02 04:31:37;;;;;;;0.15;0.15;;;4.30;99.90;;;;;;5050559;28;20037;-81
2022/12/02 04:34:03;;;;;;;0.88;0.88;;;4.30;99.90;;;;;;5050437;28;20064;-81
2022/12/02 04:36:28;;;;;;;0.10;0.10;;;4.30;99.90;;;;;;5050762;28;20044;-80
2022/12/02 04:38:54;;;;;;;0.55;0.47;;;4.30;99.90;;;;;;5032385;28;20033;-81
2022/12/02 04:41:20;;;;;;;1.10;0.68;;;4.40;99.90;;;;;;5054150;28;20032;-82
2022/12/02 04:43:45;;;;;;;0.35;0.35;;;4.30;99.90;;;;;;5049377;28;20057;-81
2022/12/02 04:46:11;;;;;;;0.20;0.20;;;4.30;99.90;;;;;;5050017;28;20025;-81
2022/12/02 04:48:37;;;;;;;0.47;0.32;;;4.40;99.90;;;;;;5050803;28;20029;-81
2022/12/02 04:51:02;;;;;;;0.22;0.22;;;4.40;99.90;;;;;;5041813;28;20463;-81
2022/12/02 04:53:28;;;;;;;0.20;0.20;;;4.50;99.90;;;;;;5050306;28;20093;-81
2022/12/02 04:55:57;;;;;;;0.15;0.15;;;4.50;99.90;;;;;;5050387;28;20052;-81
2022/12/02 04:58:22;;;;;;;0.20;0.20;;;4.40;99.90;;;;;;5050553;28;20079;-81
2022/12/02 05:00:48;;;;;;;0.20;0.20;;;4.40;99.90;;;;;;5050382;28;20024;-82
2022/12/02 05:03:13;;;;;;;0.40;0.40;;;4.40;99.90;;;;;;5050435;28;20029;-83
2022/12/02 05:05:39;;;;;;;0.10;0.10;;;4.40;99.90;;;;;;5050906;28;20036;-82
2022/12/02 05:08:05;;;;;;;0.10;0.10;;;4.40;99.90;;;;;;5026946;28;20029;-83
2022/12/02 05:10:30;;;;;;;2.55;0.57;;;4.40;99.90;;;;;;5044423;28;20033;-80
2022/12/02 05:12:56;;;;;;;0.20;0.20;;;4.40;99.90;;;;;;5049266;28;20047;-80
2022/12/02 05:15:22;;;;;;;0.40;0.40;;;4.40;99.90;;;;;;5049872;28;20071;-80
2022/12/02 05:17:48;;;;;;;0.50;0.47;;;4.40;99.90;;;;;;5049743;28;20044;-81
2022/12/02 05:20:13;;;;;;;0.30;0.30;;;4.40;99.90;;;;;;5050034;28;20558;-82
2022/12/02 05:22:39;;;;;;;0.30;0.30;;;4.40;99.90;;;;;;5049563;28;20029;-82
2022/12/02 05:25:05;;;;;;;0.10;0.10;;;4.40;99.90;;;;;;5031303;28;20071;-82
2022/12/02 05:27:31;;;;;;;0.10;0.10;;;4.40;99.90;;;;;;5031471;28;20064;-82
2022/12/02 05:29:57;;;;;;;0.20;0.20;;;4.50;99.90;;;;;;5049237;28;20929;-82
2022/12/02 05:32:22;;;;;;;0.38;0.38;;;4.40;99.90;;;;;;5062744;28;20024;-82
2022/12/02 05:34:48;;;;;;;0.10;0.10;;;4.50;99.90;;;;;;5063873;28;20037;-82
2022/12/02 05:37:14;;;;;;;0.10;0.10;;;4.50;99.90;;;;;;5050208;28;20081;-83
2022/12/02 05:39:39;;;;;;;0.28;0.28;;;4.40;99.90;;;;;;5049200;28;20061;-82
2022/12/02 05:42:10;;;;;;;0.20;0.20;;;4.40;99.90;;;;;;5053547;28;20027;-81
2022/12/02 05:44:37;;;;;;;0.30;0.30;;;4.50;99.90;;;;;;5052411;28;20103;-83
2022/12/02 05:47:10;;;;;;;0.68;0.68;;;4.50;99.90;;;;;;5048931;28;20028;-85
2022/12/02 05:49:37;;;;;;;0.28;0.28;;;4.50;99.90;;;;;;5049623;28;20031;-84
2022/12/02 05:52:32;;;;;;;0.63;0.45;;;4.60;99.90;;;;;;5050825;28;20777;-91
2022/12/02 05:55:01;;;;;;;0.20;0.20;;;4.50;99.90;;;;;;5030008;28;20087;-87
2022/12/02 05:57:29;;;;;;;0.10;0.10;;;4.60;99.90;;;;;;5054986;28;20034;-90
2022/12/02 06:00:13;;;;;;;0.57;0.57;;;4.60;99.90;;;;;;5033211;28;20073;-86
2022/12/02 06:02:42;;;;;;;0.10;0.10;;;4.60;99.90;;;;;;5027987;28;20033;-86
2022/12/02 06:05:18;;;;;;;0.25;0.25;;;4.60;99.90;;;;;;5040087;28;20040;-82
2022/12/02 06:07:44;;;;;;;1.60;0.93;;;4.60;99.90;;;;;;5039453;28;20740;-83
2022/12/02 06:10:35;;;;;;;0.10;0.10;;;4.60;99.90;;;;;;5050071;28;20033;-84
2022/12/02 06:13:32;;;;;;;7.97;0.73;;;4.60;99.90;;;;;;5053084;28;20126;-86
2022/12/02 06:15:59;;;;;;;0.20;0.20;;;4.50;99.90;;;;;;5050070;28;20058;-84
2022/12/02 06:18:33;;;;;;;0.35;0.35;;;4.50;99.90;;;;;;5032413;28;20036;-89
2022/12/02 06:21:01;;;;;;;0.10;0.10;;;4.60;99.90;;;;;;5032456;28;20032;-82
2022/12/02 06:23:30;;;;;;;0.20;0.20;;;4.40;99.90;;;;;;5033621;28;20021;-84
2022/12/02 06:25:57;;;;;;;0.35;0.35;;;4.50;99.90;;;;;;5046340;28;20040;-85
2022/12/02 06:28:29;;;;;;;0.57;0.57;;;4.50;99.90;;;;;;5048347;28;20033;-81
2022/12/02 06:31:08;;;;;;;0.52;0.52;;;4.40;99.90;;;;;;5047272;28;20052;-83
2022/12/02 06:33:35;;;;;;;0.10;0.10;;;4.40;99.90;;;;;;5048459;28;20029;-82
2022/12/02 06:36:04;;;;;;;0.10;0.10;;;4.40;99.90;;;;;;5049112;28;20035;-86
2022/12/02 06:38:37;;;;;;;0.20;0.20;;;4.40;99.90;;;;;;5048664;28;20109;-85
2022/12/02 06:41:13;;;;;;;0.10;0.10;;;4.40;99.90;;;;;;5046905;28;20029;-83
2022/12/02 06:43:39;;;;;;;0.55;0.55;;;4.40;99.90;;;;;;5041187;28;20028;-83
2022/12/02 06:46:17;;;;;;;0.10;0.10;;;4.30;99.90;;;;;;5044643;28;20041;-80
2022/12/02 06:48:43;;;;;;;0.40;0.40;;;4.30;99.90;;;;;;5027962;28;20114;-81
2022/12/02 06:51:17;;;;;;;0.40;0.40;;;4.30;99.90;;;;;;5029022;28;20064;-81
2022/12/02 06:53:43;;;;;;;0.40;0.40;;;4.30;99.90;;;;;;5047712;28;20028;-81
2022/12/02 06:56:22;;;;;;;0.20;0.20;;;4.30;99.90;;;;;;5046890;28;20049;-82
2022/12/02 06:58:57;;;;;;;0.10;0.10;;;4.30;99.90;;;;;;5040241;28;20037;-80
2022/12/02 07:01:28;;;;;;;0.73;0.73;;;4.20;99.90;;;;;;5025179;28;20029;-80
2022/12/02 07:04:09;;;;;;;0.25;0.25;;;4.20;99.90;;;;;;5047527;28;20472;-83
2022/12/02 07:06:45;;;;;;;1.08;0.93;;;4.20;99.90;;;;;;5027401;28;20032;-81
2022/12/02 07:09:36;;;;;;;0.10;0.10;;;4.10;99.90;;;;;;5047041;28;20040;-81
2022/12/02 07:12:09;;;;;;;0.68;0.60;;;4.10;99.90;;;;;;4993169;28;20104;-81
2022/12/02 07:14:54;;;;;;;0.75;0.75;;;4.20;99.90;;;;;;5035237;28;20044;-79
2022/12/02 07:17:35;;;;;;;0.52;0.52;;;4.20;99.90;;;;;;5029082;28;20148;-80
2022/12/02 07:20:10;;;;;;;0.10;0.10;;;4.20;99.90;;;;;;5038679;28;20036;-80
2022/12/02 07:22:43;;;;;;;0.10;0.10;;;4.20;99.90;;;;;;5049673;28;20032;-80
2022/12/02 07:25:08;;;;;;;0.10;0.10;;;4.20;99.90;;;;;;5047448;28;20515;-80
2022/12/02 07:27:41;;;;;;;0.20;0.20;;;4.20;99.90;;;;;;5054664;28;20186;-79
2022/12/02 07:30:33;;;;;;;0.73;0.73;;;4.20;99.90;;;;;;5029478;28;20043;-79
2022/12/02 07:32:59;;;;;;;0.40;0.40;;;4.20;99.90;;;;;;5028815;28;20082;-78
2022/12/02 07:35:25;;;;;;;0.10;0.10;;;4.20;99.90;;;;;;5047182;28;20048;-78
2022/12/02 07:37:51;;;;;;;0.60;0.52;;;4.30;99.90;;;;;;5047511;28;20037;-80
2022/12/02 07:40:19;;;;;;;0.10;0.10;;;4.30;99.90;;;;;;5047403;28;20029;-81
2022/12/02 07:42:45;;;;;;;0.10;0.10;;;4.20;99.90;;;;;;5047808;28;20056;-78
2022/12/02 07:45:12;;;;;;;0.10;0.10;;;4.30;99.90;;;;;;5047707;28;20052;-82
2022/12/02 07:47:38;;;;;;;0.30;0.30;;;4.30;99.90;;;;;;5029277;28;20039;-83
2022/12/02 07:50:05;;;;;;;0.10;0.10;;;4.30;99.90;;;;;;5064636;28;20033;-84
2022/12/02 07:52:30;;;;;;;0.13;0.13;;;4.30;99.90;;;;;;5052032;28;20021;-85
2022/12/02 07:54:56;;;;;;;0.20;0.20;;;4.30;99.90;;;;;;5046721;28;20040;-84
2022/12/02 07:57:22;;;;;;;0.30;0.30;;;4.30;99.90;;;;;;5045744;28;20108;-85
2022/12/02 07:59:48;;;;;;;0.10;0.10;;;4.30;99.90;;;;;;5046358;28;20025;-85
2022/12/02 08:02:14;;;;;;;0.28;0.28;;;4.30;99.90;;;;;;5055375;28;20315;-85
2022/12/02 08:04:40;;;;;;;0.20;0.20;;;4.30;99.90;;;;;;5047226;28;20174;-84
2022/12/02 08:07:05;;;;;;;0.10;0.10;;;4.40;99.90;;;;;;5029286;28;20123;-85
2022/12/02 08:09:31;;;;;;;0.20;0.20;;;4.40;99.90;;;;;;5046184;28;20029;-85
2022/12/02 08:11:56;;;;;;;0.50;0.50;;;4.40;99.90;;;;;;5066023;28;20037;-85
2022/12/02 08:14:22;;;;;;;0.73;0.73;;;4.40;99.90;;;;;;5053101;28;20124;-83
2022/12/02 08:16:48;;;;;;;0.13;0.13;;;4.50;99.90;;;;;;5046642;28;20028;-85
2022/12/02 08:19:13;;;;;;;0.15;0.15;;;4.60;99.90;;;;;;5047149;28;20033;-84
2022/12/02 08:21:39;;;;;;;0.15;0.15;;;4.60;99.90;;;;;;5029248;28;20036;-85
2022/12/02 08:24:06;;;;;;;0.10;0.10;;;4.60;99.90;;;;;;5047338;28;20025;-84
2022/12/02 08:26:32;;;;;;;0.10;0.10;;;4.50;99.90;;;;;;5028777;28;20114;-84
2022/12/02 08:28:57;;;;;;;0.50;0.50;;;4.60;99.90;;;;;;5046920;28;20060;-84
2022/12/02 08:31:23;;;;;;;0.10;0.10;;;4.60;99.90;;;;;;5028894;28;20047;-84
2022/12/02 08:33:50;;;;;;;0.10;0.10;;;4.60;99.90;;;;;;5029397;28;20115;-84
2022/12/02 08:36:16;;;;;;;0.15;0.15;;;4.80;99.90;;;;;;5047093;28;20036;-83
2022/12/02 08:38:42;;;;;;;0.45;0.45;;;4.70;99.90;;;;;;5047831;28;20039;-84
2022/12/02 08:41:08;;;;;;;0.43;0.43;;;4.70;99.90;;;;;;5029388;28;20025;-83
2022/12/02 08:43:34;;;;;;;0.30;0.30;;;4.70;99.90;;;;;;5046972;28;20098;-84
2022/12/02 08:45:59;;;;;;;0.20;0.20;;;4.80;99.90;;;;;;5047003;28;20291;-84
2022/12/02 08:48:25;;;;;;;0.88;0.70;;;4.80;99.90;;;;;;5029072;28;20029;-84
2022/12/02 08:50:51;;;;;;;0.20;0.20;;;4.80;99.90;;;;;;5047252;28;20069;-85
2022/12/02 08:53:16;;;;;;;0.22;0.22;;;4.80;99.90;;;;;;5048380;28;20056;-84
2022/12/02 08:55:42;;;;;;;0.30;0.30;;;4.80;99.90;;;;;;5028659;28;20080;-84
2022/12/02 08:58:08;;;;;;;0.32;0.32;;;4.80;99.90;;;;;;5047377;28;20029;-84
2022/12/02 09:00:34;;;;;;;0.20;0.20;;;4.80;99.90;;;;;;5047080;28;20381;-85
2022/12/02 09:03:00;;;;;;;0.15;0.15;;;4.90;99.90;;;;;;5028677;28;20032;-84
2022/12/02 09:05:25;;;;;;;0.15;0.15;;;4.90;99.90;;;;;;5028667;28;20021;-84
2022/12/02 09:07:51;;;;;;;0.40;0.30;;;4.90;99.90;;;;;;5044114;28;20500;-84
2022/12/02 09:10:17;;;;;;;0.43;0.43;;;4.90;99.90;;;;;;5050128;28;20029;-84
2022/12/02 09:12:42;;;;;;;0.20;0.20;;;4.90;99.90;;;;;;5050410;28;20036;-83
2022/12/02 09:15:09;;;;;;;0.30;0.30;;;5.00;99.90;;;;;;5048950;28;20029;-83
2022/12/02 09:17:34;;;;;;;0.45;0.45;;;5.00;99.90;;;;;;5049956;28;20033;-83
2022/12/02 09:20:00;;;;;;;0.90;0.90;;;5.10;99.90;;;;;;5048486;28;20028;-84
2022/12/02 09:22:26;;;;;;;0.10;0.10;;;5.20;99.90;;;;;;5031999;28;20060;-85
2022/12/02 09:24:52;;;;;;;0.30;0.30;;;5.20;99.90;;;;;;5031915;28;20068;-83
2022/12/02 09:27:17;;;;;;;0.10;0.10;;;5.20;99.90;;;;;;5049454;28;20060;-85
2022/12/02 09:29:43;;;;;;;0.20;0.20;;;5.30;99.90;;;;;;5049583;28;20032;-84
2022/12/02 09:32:09;;;;;;;0.30;0.30;;;5.40;99.90;;;;;;5049147;28;20029;-85
2022/12/02 09:34:34;;;;;;;0.20;0.20;;;5.30;99.90;;;;;;5049437;28;20033;-84
2022/12/02 09:37:00;;;;;;;0.88;0.85;;;5.30;99.90;;;;;;5031263;28;20028;-84
2022/12/02 09:39:26;;;;;;;0.10;0.10;;;5.30;99.90;;;;;;5049654;28;20044;-84
2022/12/02 09:41:51;;;;;;;0.20;0.20;;;5.30;99.90;;;;;;5049241;28;20559;-85
2022/12/02 09:44:17;;;;;;;0.20;0.20;;;5.40;99.90;;;;;;5050004;28;20021;-84
2022/12/02 09:46:43;;;;;;;0.20;0.20;;;5.40;99.90;;;;;;5049591;28;20108;-84
2022/12/02 09:49:09;;;;;;;0.75;0.75;;;5.40;99.90;;;;;;5049867;28;20029;-85
2022/12/02 09:51:35;;;;;;;0.47;0.47;;;5.40;99.90;;;;;;5032441;28;20078;-84
2022/12/02 09:54:02;;;;;;;0.38;0.38;;;5.30;99.90;;;;;;5049619;28;20107;-84
2022/12/02 09:56:29;;;;;;;;;;;5.40;99.90;;;;;;5031458;28;20048;-85
2022/12/02 09:58:55;;;;;;;0.30;0.30;;;5.30;99.90;;;;;;5031214;28;19915;-84
2022/12/02 10:01:21;;;;;;;0.55;0.55;;;5.30;99.90;;;;;;5049187;28;20513;-84
2022/12/02 10:03:49;;;;;;;0.40;0.40;;;5.30;99.90;;;;;;5031248;28;20036;-83
2022/12/02 10:06:25;;;;;;;0.38;0.38;;;5.30;99.90;;;;;;5049661;28;20116;-84
2022/12/02 10:08:53;;;;;;;0.10;0.10;;;5.40;99.90;;;;;;5046288;28;20028;-83
2022/12/02 10:11:29;;;;;;;0.35;0.35;;;5.50;99.90;;;;;;5031236;28;20056;-83
2022/12/02 10:13:55;;;;;;;0.63;0.63;;;5.50;99.90;;;;;;5031213;28;20031;-84
2022/12/02 10:16:22;;;;;;;1.92;0.98;;;5.40;99.90;;;;;;5031145;28;20221;-85
2022/12/02 10:18:47;;;;;;;0.10;0.10;;;5.50;99.90;;;;;;5038699;28;20032;-84
2022/12/02 10:21:14;;;;;;;0.38;0.38;;;5.50;99.90;;;;;;5048984;28;20152;-84
2022/12/02 10:23:58;;;;;;;0.27;0.27;;;5.50;99.90;;;;;;5032173;28;20025;-84
2022/12/02 10:26:24;;;;;;;0.20;0.20;;;5.60;99.90;;;;;;5050275;28;20272;-84
2022/12/02 10:29:08;;;;;;;0.40;0.40;;;5.60;99.90;;;;;;5048796;28;20103;-83
2022/12/02 10:31:34;;;;;;;0.20;0.20;;;5.60;99.90;;;;;;5046872;28;20048;-85
2022/12/02 10:34:03;;;;;;;0.95;0.95;;;5.70;99.90;;;;;;5041281;28;20040;-84
2022/12/02 10:36:33;;;;;;;0.20;0.20;;;5.80;99.90;;;;;;5030006;28;20127;-84
2022/12/02 10:39:21;;;;;;;7.75;2.67;;;5.70;99.90;;;;;;5048998;28;20082;-84
2022/12/02 10:42:02;;;;;;;2.97;1.65;;;5.80;99.90;;;;;;5030707;28;20566;-84
2022/12/02 10:44:29;;;;;;;1.15;1.10;;;5.80;99.90;;;;;;5049074;28;20021;-84
2022/12/02 10:47:15;;;;;;;0.17;0.17;;;5.80;99.90;;;;;;5048346;28;20806;-85
2022/12/02 10:49:51;;;;;;;1.08;1.08;;;5.80;99.90;;;;;;5048551;28;20524;-84
2022/12/02 10:52:23;;;;;;;1.17;1.02;;;5.80;99.90;;;;;;5049384;28;20491;-84
2022/12/02 10:54:52;;;;;;;1.38;0.47;;;6.00;99.90;;;;;;5030562;28;20055;-84
2022/12/02 10:57:26;;;;;;;0.10;0.10;;;6.00;99.90;;;;;;5048437;28;20519;-85
2022/12/02 10:59:57;;;;;;;0.50;0.50;;;6.00;99.90;;;;;;5052362;28;20035;-84
2022/12/02 11:02:31;;;;;;;0.30;0.30;;;6.00;99.90;;;;;;5030106;28;20886;-84
2022/12/02 11:05:00;;;;;;;0.20;0.20;;;5.90;99.90;;;;;;5047867;28;20025;-84
2022/12/02 11:07:26;;;;;;;0.20;0.20;;;6.00;99.90;;;;;;5042815;28;20092;-83
2022/12/02 11:09:54;;;;;;;0.17;0.17;;;6.00;99.90;;;;;;5049215;28;20139;-83
2022/12/02 11:12:46;;;;;;;0.43;0.43;;;6.00;99.90;;;;;;5029867;28;20054;-83
2022/12/02 11:15:48;;;;;;;5.40;0.52;;;6.00;99.90;;;;;;5029105;28;20037;-84
2022/12/02 11:18:29;;;;;;;0.22;0.22;;;6.10;99.90;;;;;;5017169;28;20075;-84
2022/12/02 11:21:05;;;;;;;0.50;0.50;;;6.10;99.90;;;;;;5029344;28;20040;-84
2022/12/02 11:23:32;;;;;;;1.08;0.43;;;6.00;99.90;;;;;;5047848;28;20032;-84
2022/12/02 11:26:06;;;;;;;0.30;0.30;;;6.10;99.90;;;;;;5029481;28;20082;-84
2022/12/02 11:28:47;;;;;;;0.57;0.57;;;6.20;99.90;;;;;;5047826;28;20088;-83
2022/12/02 11:31:13;;;;;;;0.20;0.20;;;6.10;99.90;;;;;;5046947;28;20100;-84
2022/12/02 11:34:00;;;;;;;0.85;0.75;;;6.10;99.90;;;;;;5047748;28;20025;-84
2022/12/02 11:36:30;;;;;;;0.57;0.57;;;6.20;99.90;;;;;;5029506;28;20083;-83
2022/12/02 11:39:09;;;;;;;0.20;0.20;;;6.20;99.90;;;;;;5047729;28;20021;-84
2022/12/02 11:41:46;;;;;;;1.20;0.63;;;6.10;99.90;;;;;;5042590;28;20025;-83
2022/12/02 11:44:25;;;;;;;0.77;0.77;;;6.20;99.90;;;;;;5051473;28;20021;-84
2022/12/02 11:46:54;;;;;;;0.95;0.95;;;6.20;99.90;;;;;;5047226;28;20037;-84
2022/12/02 11:49:39;;;;;;;0.32;0.32;;;6.20;99.90;;;;;;5047492;28;20025;-83
2022/12/02 11:52:16;;;;;;;0.10;0.10;;;6.30;99.90;;;;;;5046974;28;20032;-83
2022/12/02 11:54:59;;;;;;;0.75;0.75;;;6.20;99.90;;;;;;5029013;28;20025;-84
2022/12/02 11:57:43;;;;;;;0.10;0.10;;;6.10;99.90;;;;;;5045762;28;20053;-85
2022/12/02 12:00:25;;;;;;;0.43;0.43;;;6.20;99.90;;;;;;5047574;28;20025;-84
2022/12/02 12:03:24;;;;;;;0.20;0.20;;;6.10;99.90;;;;;;5029535;28;20029;-84
2022/12/02 12:06:08;;;;;;;0.50;0.50;;;6.10;99.90;;;;;;5011379;28;20040;-84
2022/12/02 12:08:36;;;;;;;0.30;0.30;;;6.00;99.90;;;;;;5047797;28;20078;-84
2022/12/02 12:11:21;;;;;;;0.40;0.40;;;6.10;99.90;;;;;;5028898;28;20036;-83
2022/12/02 12:14:12;;;;;;;27.15;1.00;;;6.10;99.90;;;;;;5040055;28;20040;-84
2022/12/02 12:16:42;;;;;;;0.70;0.57;;;6.00;99.90;;;;;;5041998;28;20029;-84
2022/12/02 12:19:10;;;;;;;1.63;0.85;;;6.10;99.90;;;;;;5029401;28;20810;-84
2022/12/02 12:21:47;;;;;;;0.52;0.52;;;6.10;99.90;;;;;;5047780;28;20123;-84
2022/12/02 12:24:16;;;;;;;0.32;0.32;;;6.20;99.90;;;;;;5047130;28;20030;-84
2022/12/02 12:27:03;;;;;;;0.17;0.17;;;6.20;99.90;;;;;;5029089;28;20493;-84
2022/12/02 12:29:31;;;;;;;0.20;0.20;;;6.10;99.90;;;;;;5029259;28;20029;-84
2022/12/02 12:31:56;;;;;;;;;;;6.00;99.90;;;;;;5029377;28;20496;-84
2022/12/02 12:34:22;;;;;;;0.43;0.43;;;6.10;99.90;;;;;;5028616;28;19909;-84
2022/12/02 12:36:48;;;;;;;0.20;0.20;;;6.20;99.90;;;;;;5028517;28;20037;-83
2022/12/02 12:39:14;;;;;;;1.70;0.88;;;6.20;99.90;;;;;;5029071;28;20106;-84
2022/12/02 12:41:40;;;;;;;0.32;0.32;;;6.20;99.90;;;;;;5047133;28;20052;-84
2022/12/02 12:44:06;;;;;;;0.10;0.10;;;6.20;99.90;;;;;;5050853;28;20053;-84
2022/12/02 12:46:32;;;;;;;0.32;0.32;;;6.20;99.90;;;;;;5050361;28;20033;-84
2022/12/02 12:48:58;;;;;;;0.10;0.10;;;6.10;99.90;;;;;;5051109;28;20037;-84
2022/12/02 12:51:24;;;;;;;0.10;0.10;;;6.20;99.90;;;;;;5051693;28;20037;-84
2022/12/02 12:53:50;;;;;;;0.20;0.20;;;6.10;99.90;;;;;;5032977;28;20516;-83
2022/12/02 12:56:15;;;;;;;0.20;0.20;;;6.10;99.90;;;;;;5035530;28;20048;-84
2022/12/02 12:58:41;;;;;;;0.20;0.20;;;6.10;99.90;;;;;;5051193;28;20029;-84
2022/12/02 13:01:07;;;;;;;0.20;0.20;;;6.10;99.90;;;;;;5050273;28;20021;-84
2022/12/02 13:03:33;;;;;;;0.20;0.20;;;6.20;99.90;;;;;;5050725;28;20032;-84
2022/12/02 13:05:59;;;;;;;0.67;0.67;;;6.10;99.90;;;;;;5055485;28;20025;-84
2022/12/02 13:08:25;;;;;;;0.20;0.20;;;6.10;99.90;;;;;;5032133;28;21027;-83
2022/12/02 13:10:50;;;;;;;0.13;0.13;;;6.10;99.90;;;;;;5032324;28;20051;-83